Terminal Aerodrome Forecast
Issued by NWS

Home | Current Version | Previous Version | Text Only | Print | Product List | Glossary Off
Versions: 1 2 3 4 5 6 7 8 9 10 11 12 13 14 15 16 17 18 19 20 21 22 23 24 25

000
FTUS41 KCLE 261120
TAFFDY
TAF
KFDY 261120Z 2612/2712 06006KT P6SM SCT060 OVC120
      TEMPO 2612/2614 BKN060
     FM261400 14010KT 4SM -RA BR OVC025
     FM261800 18012KT 6SM -SHRA BR OVC025
      TEMPO 2620/2624 4SM -TSRA OVC025CB
     FM270200 20004KT 6SM BR SCT012 BKN120
     FM270500 23006KT 3SM BR OVC012=

USA.gov is the U.S. government's official web portal to all federal, state and local government web resources and services.